EmailTwitter


Observations de surface / États-Unis / KJFK (74486)

Régions: Québec | Canada | États-Unis | Europe | France | UK | Ailleurs
Station
Affichage
Infos & localisation pour KJFK (74486) | Aide pour décoder les METARs

Observations prises le 2019-09-23 à 10H51 UTC à NEW YORK/JF KENN, NY (KJFK)

Etat du ciel: ciel variable.

Température: 20.6 Celsius

Point de rosée: 18.9 Celsius

Humidité relative: 90%

Indice Humidex: 27.

Vents: Sud-ouest à 15 km/h ou 8 noeuds.

Pression au niveau moyen de la mer: 101.41 kilopascals.

Calage altimétrique: 101.42 kilopascals ou 29.95 pouces de mercure.

Visibilité horizontale: 10.00 milles terrestres ou 16.00 kilomètres.

Observation METAR:

KJFK 231051Z 21008KT 10SM SCT250 21/19 A2995 RMK AO2 SLP141 T02060189 CHINO W $=